Terminal Aerodrome Forecast
Issued by NWS El Paso, TX

Home | Current Version | Previous Version | Text Only | Print | Product List | Glossary On
Versions: 1 2 3 4 5 6 7 8 9 10 11 12 13 14 15 16
000
FTUS44 KEPZ 281100
TAFELP
TAF
KELP 281121Z 2812/2912 34011KT P6SM SCT100 BKN250
     FM282000 12009KT P6SM VCTS SCT080CB SCT250
     FM290400 VRB04KT P6SM SCT120 SCT250=

USA.gov is the U.S. government's official web portal to all federal, state and local government web resources and services.